sensor_id;sensor_type;location;lat;lon;timestamp;P1;durP1;ratioP1;P2;durP2;ratioP2
15317;SDS011;7759;52.528;13.346;2023-01-10T00:02:01;1.83;;;1.43;;
15317;SDS011;7759;52.528;13.346;2023-01-10T00:04:27;2.30;;;0.93;;
15317;SDS011;7759;52.528;13.346;2023-01-10T00:06:54;1.73;;;1.27;;
15317;SDS011;7759;52.528;13.346;2023-01-10T00:09:20;1.03;;;0.87;;
15317;SDS011;7759;52.528;13.346;2023-01-10T00:11:46;1.63;;;1.30;;
15317;SDS011;7759;52.528;13.346;2023-01-10T00:14:31;2.17;;;1.30;;
15317;SDS011;7759;52.528;13.346;2023-01-10T00:16:59;1.43;;;1.20;;
15317;SDS011;7759;52.528;13.346;2023-01-10T00:19:25;2.10;;;1.50;;
15317;SDS011;7759;52.528;13.346;2023-01-10T00:21:50;3.90;;;1.43;;
15317;SDS011;7759;52.528;13.346;2023-01-10T00:24:17;1.40;;;1.07;;
15317;SDS011;7759;52.528;13.346;2023-01-10T00:26:46;1.83;;;0.97;;
15317;SDS011;7759;52.528;13.346;2023-01-10T00:29:15;2.50;;;0.90;;
15317;SDS011;7759;52.528;13.346;2023-01-10T00:31:41;2.03;;;1.30;;
15317;SDS011;7759;52.528;13.346;2023-01-10T00:34:07;1.97;;;1.00;;
15317;SDS011;7759;52.528;13.346;2023-01-10T00:36:33;1.37;;;1.20;;
15317;SDS011;7759;52.528;13.346;2023-01-10T00:38:59;1.50;;;1.10;;
15317;SDS011;7759;52.528;13.346;2023-01-10T00:41:26;2.10;;;1.30;;
15317;SDS011;7759;52.528;13.346;2023-01-10T00:44:11;2.03;;;1.30;;
15317;SDS011;7759;52.528;13.346;2023-01-10T00:46:36;2.33;;;1.20;;
15317;SDS011;7759;52.528;13.346;2023-01-10T00:49:02;1.10;;;1.00;;
15317;SDS011;7759;52.528;13.346;2023-01-10T00:51:37;1.90;;;1.20;;
15317;SDS011;7759;52.528;13.346;2023-01-10T00:54:03;3.47;;;1.40;;
15317;SDS011;7759;52.528;13.346;2023-01-10T00:56:29;2.00;;;1.30;;
15317;SDS011;7759;52.528;13.346;2023-01-10T00:58:55;1.60;;;1.27;;
15317;SDS011;7759;52.528;13.346;2023-01-10T01:01:21;1.70;;;1.30;;
15317;SDS011;7759;52.528;13.346;2023-01-10T01:03:47;1.07;;;0.93;;
15317;SDS011;7759;52.528;13.346;2023-01-10T01:06:13;5.80;;;1.70;;
15317;SDS011;7759;52.528;13.346;2023-01-10T01:08:39;2.30;;;1.37;;
15317;SDS011;7759;52.528;13.346;2023-01-10T01:11:05;2.37;;;1.60;;
15317;SDS011;7759;52.528;13.346;2023-01-10T01:13:31;1.30;;;1.10;;
15317;SDS011;7759;52.528;13.346;2023-01-10T01:15:57;1.90;;;1.07;;
15317;SDS011;7759;52.528;13.346;2023-01-10T01:18:24;4.73;;;1.10;;
15317;SDS011;7759;52.528;13.346;2023-01-10T01:20:51;1.23;;;1.10;;
15317;SDS011;7759;52.528;13.346;2023-01-10T01:23:18;2.33;;;1.10;;
15317;SDS011;7759;52.528;13.346;2023-01-10T01:25:44;1.47;;;0.80;;
15317;SDS011;7759;52.528;13.346;2023-01-10T01:28:13;2.00;;;1.20;;
15317;SDS011;7759;52.528;13.346;2023-01-10T01:30:39;4.60;;;1.70;;
15317;SDS011;7759;52.528;13.346;2023-01-10T01:33:05;1.43;;;0.80;;
15317;SDS011;7759;52.528;13.346;2023-01-10T01:35:31;1.23;;;1.10;;
15317;SDS011;7759;52.528;13.346;2023-01-10T01:37:57;1.53;;;1.10;;
15317;SDS011;7759;52.528;13.346;2023-01-10T01:40:23;1.40;;;0.80;;
15317;SDS011;7759;52.528;13.346;2023-01-10T01:42:49;1.90;;;1.20;;
15317;SDS011;7759;52.528;13.346;2023-01-10T01:47:48;1.33;;;1.20;;
15317;SDS011;7759;52.528;13.346;2023-01-10T01:50:27;1.77;;;1.40;;
15317;SDS011;7759;52.528;13.346;2023-01-10T01:52:57;1.97;;;1.33;;
15317;SDS011;7759;52.528;13.346;2023-01-10T01:55:24;1.67;;;0.97;;
15317;SDS011;7759;52.528;13.346;2023-01-10T01:57:50;1.57;;;1.07;;
15317;SDS011;7759;52.528;13.346;2023-01-10T02:00:17;2.77;;;1.40;;
15317;SDS011;7759;52.528;13.346;2023-01-10T02:02:44;1.00;;;0.90;;
15317;SDS011;7759;52.528;13.346;2023-01-10T03:33:54;1.80;;;1.03;;
15317;SDS011;7759;52.528;13.346;2023-01-10T03:36:24;1.63;;;0.80;;
15317;SDS011;7759;52.528;13.346;2023-01-10T03:44:11;1.20;;;0.80;;
15317;SDS011;7759;52.528;13.346;2023-01-10T03:49:34;0.83;;;0.83;;
15317;SDS011;7759;52.528;13.346;2023-01-10T03:52:02;2.30;;;1.40;;
15317;SDS011;7759;52.528;13.346;2023-01-10T03:54:45;1.13;;;1.00;;
15317;SDS011;7759;52.528;13.346;2023-01-10T03:57:19;1.47;;;1.10;;
15317;SDS011;7759;52.528;13.346;2023-01-10T03:59:45;3.37;;;1.37;;
15317;SDS011;7759;52.528;13.346;2023-01-10T04:02:12;1.67;;;1.10;;
15317;SDS011;7759;52.528;13.346;2023-01-10T04:04:38;2.43;;;1.57;;
15317;SDS011;7759;52.528;13.346;2023-01-10T04:07:04;2.10;;;1.37;;
15317;SDS011;7759;52.528;13.346;2023-01-10T04:09:30;2.20;;;1.17;;
15317;SDS011;7759;52.528;13.346;2023-01-10T04:11:55;2.10;;;1.47;;
15317;SDS011;7759;52.528;13.346;2023-01-10T04:14:21;3.60;;;1.60;;
15317;SDS011;7759;52.528;13.346;2023-01-10T04:16:47;2.30;;;1.80;;
15317;SDS011;7759;52.528;13.346;2023-01-10T04:19:13;2.50;;;1.40;;
15317;SDS011;7759;52.528;13.346;2023-01-10T04:21:39;3.10;;;1.97;;
15317;SDS011;7759;52.528;13.346;2023-01-10T04:24:05;2.30;;;1.80;;
15317;SDS011;7759;52.528;13.346;2023-01-10T04:26:31;6.80;;;2.53;;
15317;SDS011;7759;52.528;13.346;2023-01-10T04:28:57;3.17;;;1.70;;
15317;SDS011;7759;52.528;13.346;2023-01-10T04:31:23;7.73;;;2.10;;
15317;SDS011;7759;52.528;13.346;2023-01-10T04:33:50;4.60;;;1.93;;
15317;SDS011;7759;52.528;13.346;2023-01-10T04:36:16;5.37;;;2.03;;
15317;SDS011;7759;52.528;13.346;2023-01-10T04:38:42;3.00;;;2.13;;
15317;SDS011;7759;52.528;13.346;2023-01-10T04:41:08;5.10;;;2.07;;
15317;SDS011;7759;52.528;13.346;2023-01-10T04:43:34;1.87;;;1.70;;
15317;SDS011;7759;52.528;13.346;2023-01-10T04:46:00;4.27;;;1.73;;
15317;SDS011;7759;52.528;13.346;2023-01-10T04:48:26;3.13;;;1.87;;
15317;SDS011;7759;52.528;13.346;2023-01-10T04:50:52;5.23;;;2.90;;
15317;SDS011;7759;52.528;13.346;2023-01-10T04:53:18;3.90;;;1.87;;
15317;SDS011;7759;52.528;13.346;2023-01-10T04:55:45;5.83;;;2.07;;
15317;SDS011;7759;52.528;13.346;2023-01-10T04:58:11;5.73;;;2.03;;
15317;SDS011;7759;52.528;13.346;2023-01-10T05:00:37;3.67;;;2.33;;
15317;SDS011;7759;52.528;13.346;2023-01-10T05:03:03;4.03;;;2.33;;
15317;SDS011;7759;52.528;13.346;2023-01-10T05:05:29;3.80;;;2.30;;
15317;SDS011;7759;52.528;13.346;2023-01-10T05:07:55;2.57;;;2.03;;
15317;SDS011;7759;52.528;13.346;2023-01-10T05:10:21;3.57;;;2.00;;
15317;SDS011;7759;52.528;13.346;2023-01-10T05:12:47;4.03;;;2.03;;
15317;SDS011;7759;52.528;13.346;2023-01-10T05:15:13;9.43;;;2.37;;
15317;SDS011;7759;52.528;13.346;2023-01-10T05:17:39;3.47;;;1.77;;
15317;SDS011;7759;52.528;13.346;2023-01-10T05:20:05;6.37;;;1.90;;
15317;SDS011;7759;52.528;13.346;2023-01-10T05:22:31;4.97;;;1.90;;
15317;SDS011;7759;52.528;13.346;2023-01-10T05:24:57;3.37;;;1.80;;
15317;SDS011;7759;52.528;13.346;2023-01-10T05:27:23;1.87;;;1.67;;
15317;SDS011;7759;52.528;13.346;2023-01-10T05:29:49;3.07;;;1.87;;
15317;SDS011;7759;52.528;13.346;2023-01-10T05:32:15;6.67;;;2.40;;
15317;SDS011;7759;52.528;13.346;2023-01-10T05:34:41;6.27;;;2.10;;
15317;SDS011;7759;52.528;13.346;2023-01-10T05:37:07;3.17;;;1.80;;
15317;SDS011;7759;52.528;13.346;2023-01-10T05:39:33;5.27;;;2.30;;
15317;SDS011;7759;52.528;13.346;2023-01-10T05:41:59;4.43;;;2.00;;
15317;SDS011;7759;52.528;13.346;2023-01-10T05:44:25;6.53;;;2.00;;
15317;SDS011;7759;52.528;13.346;2023-01-10T05:46:50;6.50;;;2.70;;
15317;SDS011;7759;52.528;13.346;2023-01-10T05:49:16;7.10;;;2.20;;
15317;SDS011;7759;52.528;13.346;2023-01-10T05:51:42;6.47;;;2.80;;
15317;SDS011;7759;52.528;13.346;2023-01-10T05:54:08;5.00;;;2.37;;
15317;SDS011;7759;52.528;13.346;2023-01-10T05:56:34;4.07;;;2.07;;
15317;SDS011;7759;52.528;13.346;2023-01-10T05:59:00;3.80;;;2.10;;
15317;SDS011;7759;52.528;13.346;2023-01-10T06:01:26;5.23;;;2.37;;
15317;SDS011;7759;52.528;13.346;2023-01-10T06:03:52;4.97;;;2.13;;
15317;SDS011;7759;52.528;13.346;2023-01-10T06:06:18;5.60;;;2.20;;
15317;SDS011;7759;52.528;13.346;2023-01-10T06:08:44;4.07;;;1.83;;
15317;SDS011;7759;52.528;13.346;2023-01-10T06:11:09;8.03;;;2.73;;
15317;SDS011;7759;52.528;13.346;2023-01-10T06:13:35;4.40;;;2.10;;
15317;SDS011;7759;52.528;13.346;2023-01-10T06:16:01;4.33;;;2.40;;
15317;SDS011;7759;52.528;13.346;2023-01-10T06:18:27;5.60;;;2.30;;
15317;SDS011;7759;52.528;13.346;2023-01-10T06:20:53;5.23;;;2.13;;
15317;SDS011;7759;52.528;13.346;2023-01-10T06:23:19;5.93;;;2.07;;
15317;SDS011;7759;52.528;13.346;2023-01-10T06:25:45;8.73;;;2.93;;
15317;SDS011;7759;52.528;13.346;2023-01-10T06:28:12;9.27;;;3.43;;
15317;SDS011;7759;52.528;13.346;2023-01-10T06:30:39;4.77;;;2.70;;
15317;SDS011;7759;52.528;13.346;2023-01-10T06:33:06;5.13;;;2.27;;
15317;SDS011;7759;52.528;13.346;2023-01-10T06:35:32;9.00;;;3.53;;
15317;SDS011;7759;52.528;13.346;2023-01-10T06:37:58;6.47;;;2.87;;
15317;SDS011;7759;52.528;13.346;2023-01-10T06:40:24;8.97;;;3.17;;
15317;SDS011;7759;52.528;13.346;2023-01-10T06:42:51;6.03;;;2.40;;
15317;SDS011;7759;52.528;13.346;2023-01-10T06:45:16;4.47;;;2.90;;
15317;SDS011;7759;52.528;13.346;2023-01-10T06:47:42;6.37;;;2.77;;
15317;SDS011;7759;52.528;13.346;2023-01-10T06:50:08;6.63;;;3.13;;
15317;SDS011;7759;52.528;13.346;2023-01-10T06:52:35;8.10;;;2.80;;
15317;SDS011;7759;52.528;13.346;2023-01-10T06:55:01;4.03;;;1.90;;
15317;SDS011;7759;52.528;13.346;2023-01-10T06:57:27;3.03;;;1.53;;
15317;SDS011;7759;52.528;13.346;2023-01-10T06:59:53;4.33;;;2.27;;
15317;SDS011;7759;52.528;13.346;2023-01-10T07:02:19;6.17;;;2.07;;
15317;SDS011;7759;52.528;13.346;2023-01-10T07:04:46;4.93;;;2.13;;
15317;SDS011;7759;52.528;13.346;2023-01-10T07:07:13;4.50;;;2.00;;
15317;SDS011;7759;52.528;13.346;2023-01-10T07:09:39;5.03;;;1.70;;
15317;SDS011;7759;52.528;13.346;2023-01-10T07:12:04;4.03;;;1.60;;
15317;SDS011;7759;52.528;13.346;2023-01-10T07:14:30;3.80;;;1.50;;
15317;SDS011;7759;52.528;13.346;2023-01-10T07:16:56;3.10;;;1.30;;
15317;SDS011;7759;52.528;13.346;2023-01-10T07:19:22;5.83;;;3.33;;
15317;SDS011;7759;52.528;13.346;2023-01-10T07:21:48;4.30;;;2.20;;
15317;SDS011;7759;52.528;13.346;2023-01-10T07:24:14;6.30;;;3.07;;
15317;SDS011;7759;52.528;13.346;2023-01-10T07:26:40;3.97;;;1.90;;
15317;SDS011;7759;52.528;13.346;2023-01-10T07:29:06;4.53;;;2.03;;
15317;SDS011;7759;52.528;13.346;2023-01-10T07:31:32;6.33;;;1.93;;
15317;SDS011;7759;52.528;13.346;2023-01-10T07:33:58;5.57;;;2.80;;
15317;SDS011;7759;52.528;13.346;2023-01-10T07:36:24;7.07;;;3.23;;
15317;SDS011;7759;52.528;13.346;2023-01-10T07:38:49;6.30;;;2.93;;
15317;SDS011;7759;52.528;13.346;2023-01-10T07:41:15;4.80;;;1.97;;
15317;SDS011;7759;52.528;13.346;2023-01-10T07:43:41;7.37;;;2.53;;
15317;SDS011;7759;52.528;13.346;2023-01-10T07:46:09;10.77;;;3.80;;
15317;SDS011;7759;52.528;13.346;2023-01-10T07:48:36;5.60;;;2.50;;
15317;SDS011;7759;52.528;13.346;2023-01-10T07:51:02;9.17;;;3.13;;
15317;SDS011;7759;52.528;13.346;2023-01-10T07:53:29;4.77;;;2.57;;
15317;SDS011;7759;52.528;13.346;2023-01-10T07:55:58;5.93;;;2.77;;
15317;SDS011;7759;52.528;13.346;2023-01-10T07:58:24;5.20;;;2.67;;
15317;SDS011;7759;52.528;13.346;2023-01-10T08:00:50;6.40;;;2.73;;
15317;SDS011;7759;52.528;13.346;2023-01-10T08:03:16;3.00;;;2.23;;
15317;SDS011;7759;52.528;13.346;2023-01-10T08:05:43;5.80;;;3.17;;
15317;SDS011;7759;52.528;13.346;2023-01-10T08:08:09;3.83;;;2.10;;
15317;SDS011;7759;52.528;13.346;2023-01-10T08:10:36;8.03;;;3.63;;
15317;SDS011;7759;52.528;13.346;2023-01-10T08:13:03;6.40;;;2.83;;
15317;SDS011;7759;52.528;13.346;2023-01-10T08:15:28;3.57;;;2.17;;
15317;SDS011;7759;52.528;13.346;2023-01-10T08:18:01;2.43;;;1.67;;
15317;SDS011;7759;52.528;13.346;2023-01-10T08:20:28;1.63;;;1.40;;
15317;SDS011;7759;52.528;13.346;2023-01-10T08:22:57;3.43;;;1.87;;
15317;SDS011;7759;52.528;13.346;2023-01-10T08:25:23;5.53;;;2.30;;
15317;SDS011;7759;52.528;13.346;2023-01-10T08:27:49;6.10;;;2.77;;
15317;SDS011;7759;52.528;13.346;2023-01-10T08:30:15;4.73;;;2.43;;
15317;SDS011;7759;52.528;13.346;2023-01-10T08:32:41;2.83;;;1.77;;
15317;SDS011;7759;52.528;13.346;2023-01-10T08:35:07;2.83;;;1.90;;
15317;SDS011;7759;52.528;13.346;2023-01-10T08:37:33;3.03;;;1.80;;
15317;SDS011;7759;52.528;13.346;2023-01-10T08:39:59;6.17;;;2.30;;
15317;SDS011;7759;52.528;13.346;2023-01-10T08:42:25;8.43;;;2.53;;
15317;SDS011;7759;52.528;13.346;2023-01-10T08:44:51;5.70;;;2.70;;
15317;SDS011;7759;52.528;13.346;2023-01-10T08:47:18;2.47;;;1.63;;
15317;SDS011;7759;52.528;13.346;2023-01-10T08:49:44;4.73;;;1.77;;
15317;SDS011;7759;52.528;13.346;2023-01-10T08:52:11;5.73;;;2.00;;
15317;SDS011;7759;52.528;13.346;2023-01-10T08:54:37;4.50;;;1.90;;
15317;SDS011;7759;52.528;13.346;2023-01-10T08:57:02;5.03;;;2.50;;
15317;SDS011;7759;52.528;13.346;2023-01-10T08:59:28;3.10;;;1.83;;
15317;SDS011;7759;52.528;13.346;2023-01-10T09:01:54;2.33;;;1.70;;
15317;SDS011;7759;52.528;13.346;2023-01-10T09:04:22;5.60;;;3.27;;
15317;SDS011;7759;52.528;13.346;2023-01-10T09:06:48;4.17;;;1.97;;
15317;SDS011;7759;52.528;13.346;2023-01-10T09:09:14;4.40;;;1.80;;
15317;SDS011;7759;52.528;13.346;2023-01-10T09:11:40;3.50;;;1.80;;
15317;SDS011;7759;52.528;13.346;2023-01-10T09:14:06;4.23;;;2.00;;
15317;SDS011;7759;52.528;13.346;2023-01-10T09:16:32;3.13;;;1.40;;
15317;SDS011;7759;52.528;13.346;2023-01-10T09:18:58;1.97;;;1.73;;
15317;SDS011;7759;52.528;13.346;2023-01-10T09:21:23;6.33;;;2.50;;
15317;SDS011;7759;52.528;13.346;2023-01-10T09:23:50;1.97;;;1.50;;
15317;SDS011;7759;52.528;13.346;2023-01-10T09:26:16;3.27;;;1.97;;
15317;SDS011;7759;52.528;13.346;2023-01-10T09:28:42;5.50;;;2.60;;
15317;SDS011;7759;52.528;13.346;2023-01-10T09:31:08;6.93;;;3.40;;
15317;SDS011;7759;52.528;13.346;2023-01-10T09:33:35;5.57;;;2.87;;
15317;SDS011;7759;52.528;13.346;2023-01-10T09:36:01;4.57;;;2.60;;
15317;SDS011;7759;52.528;13.346;2023-01-10T09:38:27;6.50;;;3.87;;
15317;SDS011;7759;52.528;13.346;2023-01-10T09:43:41;3.43;;;2.47;;
15317;SDS011;7759;52.528;13.346;2023-01-10T09:46:14;6.23;;;2.77;;
15317;SDS011;7759;52.528;13.346;2023-01-10T09:48:54;6.57;;;3.27;;
15317;SDS011;7759;52.528;13.346;2023-01-10T09:51:31;6.43;;;2.90;;
15317;SDS011;7759;52.528;13.346;2023-01-10T09:54:00;7.27;;;2.50;;
15317;SDS011;7759;52.528;13.346;2023-01-10T09:56:27;5.87;;;3.13;;
15317;SDS011;7759;52.528;13.346;2023-01-10T09:58:54;4.00;;;2.57;;
15317;SDS011;7759;52.528;13.346;2023-01-10T10:01:22;1.93;;;1.53;;
15317;SDS011;7759;52.528;13.346;2023-01-10T10:03:59;5.77;;;2.77;;
15317;SDS011;7759;52.528;13.346;2023-01-10T10:06:26;4.10;;;2.37;;
15317;SDS011;7759;52.528;13.346;2023-01-10T10:08:52;5.37;;;2.07;;
15317;SDS011;7759;52.528;13.346;2023-01-10T10:16:52;4.80;;;1.90;;
15317;SDS011;7759;52.528;13.346;2023-01-10T10:19:23;8.27;;;3.17;;
15317;SDS011;7759;52.528;13.346;2023-01-10T10:21:57;5.00;;;2.33;;
15317;SDS011;7759;52.528;13.346;2023-01-10T10:24:34;5.67;;;2.30;;
15317;SDS011;7759;52.528;13.346;2023-01-10T10:27:11;7.83;;;2.87;;
15317;SDS011;7759;52.528;13.346;2023-01-10T10:29:51;5.27;;;2.73;;
15317;SDS011;7759;52.528;13.346;2023-01-10T10:32:30;6.73;;;3.40;;
15317;SDS011;7759;52.528;13.346;2023-01-10T10:35:01;7.57;;;2.97;;
15317;SDS011;7759;52.528;13.346;2023-01-10T10:37:32;8.53;;;2.80;;
15317;SDS011;7759;52.528;13.346;2023-01-10T10:40:14;6.00;;;2.30;;
15317;SDS011;7759;52.528;13.346;2023-01-10T10:42:42;8.63;;;2.90;;
15317;SDS011;7759;52.528;13.346;2023-01-10T10:45:18;5.87;;;2.83;;
15317;SDS011;7759;52.528;13.346;2023-01-10T10:47:48;3.93;;;2.47;;
15317;SDS011;7759;52.528;13.346;2023-01-10T10:50:17;7.20;;;2.37;;
15317;SDS011;7759;52.528;13.346;2023-01-10T10:52:46;11.67;;;2.93;;
15317;SDS011;7759;52.528;13.346;2023-01-10T10:55:13;7.00;;;2.43;;
15317;SDS011;7759;52.528;13.346;2023-01-10T10:57:39;3.33;;;2.13;;
15317;SDS011;7759;52.528;13.346;2023-01-10T11:00:06;6.87;;;2.50;;
15317;SDS011;7759;52.528;13.346;2023-01-10T11:02:38;5.70;;;2.30;;
15317;SDS011;7759;52.528;13.346;2023-01-10T11:05:13;8.13;;;2.53;;
15317;SDS011;7759;52.528;13.346;2023-01-10T11:07:40;5.97;;;2.70;;
15317;SDS011;7759;52.528;13.346;2023-01-10T11:10:11;8.87;;;3.20;;
15317;SDS011;7759;52.528;13.346;2023-01-10T11:12:43;5.37;;;1.70;;
15317;SDS011;7759;52.528;13.346;2023-01-10T11:15:12;7.07;;;2.53;;
15317;SDS011;7759;52.528;13.346;2023-01-10T11:18:05;6.67;;;2.23;;
15317;SDS011;7759;52.528;13.346;2023-01-10T11:20:32;3.43;;;1.77;;
15317;SDS011;7759;52.528;13.346;2023-01-10T11:22:58;5.60;;;2.20;;
15317;SDS011;7759;52.528;13.346;2023-01-10T11:25:24;5.73;;;2.30;;
15317;SDS011;7759;52.528;13.346;2023-01-10T11:27:51;6.07;;;2.50;;
15317;SDS011;7759;52.528;13.346;2023-01-10T11:30:22;3.77;;;2.13;;
15317;SDS011;7759;52.528;13.346;2023-01-10T11:32:50;2.13;;;1.40;;
15317;SDS011;7759;52.528;13.346;2023-01-10T11:35:20;5.07;;;1.73;;
15317;SDS011;7759;52.528;13.346;2023-01-10T11:37:57;4.13;;;2.00;;
15317;SDS011;7759;52.528;13.346;2023-01-10T11:40:24;2.93;;;1.83;;
15317;SDS011;7759;52.528;13.346;2023-01-10T11:42:52;6.93;;;2.30;;
15317;SDS011;7759;52.528;13.346;2023-01-10T11:47:46;8.70;;;2.30;;
15317;SDS011;7759;52.528;13.346;2023-01-10T11:50:21;8.60;;;2.10;;
15317;SDS011;7759;52.528;13.346;2023-01-10T11:52:47;5.77;;;1.70;;
15317;SDS011;7759;52.528;13.346;2023-01-10T11:55:21;4.27;;;2.00;;
15317;SDS011;7759;52.528;13.346;2023-01-10T11:58:07;6.40;;;1.50;;
15317;SDS011;7759;52.528;13.346;2023-01-10T12:00:44;2.07;;;1.63;;
15317;SDS011;7759;52.528;13.346;2023-01-10T12:03:22;7.17;;;2.20;;
15317;SDS011;7759;52.528;13.346;2023-01-10T12:06:14;5.07;;;1.53;;
15317;SDS011;7759;52.528;13.346;2023-01-10T12:08:38;4.90;;;2.40;;
15317;SDS011;7759;52.528;13.346;2023-01-10T12:13:42;4.20;;;1.90;;
15317;SDS011;7759;52.528;13.346;2023-01-10T12:16:22;3.77;;;1.77;;
15317;SDS011;7759;52.528;13.346;2023-01-10T12:18:49;3.80;;;1.87;;
15317;SDS011;7759;52.528;13.346;2023-01-10T12:21:17;7.60;;;2.20;;
15317;SDS011;7759;52.528;13.346;2023-01-10T12:23:44;4.40;;;1.80;;
15317;SDS011;7759;52.528;13.346;2023-01-10T12:26:11;3.07;;;1.80;;
15317;SDS011;7759;52.528;13.346;2023-01-10T12:28:38;3.33;;;1.90;;
15317;SDS011;7759;52.528;13.346;2023-01-10T12:31:05;4.63;;;1.97;;
15317;SDS011;7759;52.528;13.346;2023-01-10T12:33:37;4.53;;;1.77;;
15317;SDS011;7759;52.528;13.346;2023-01-10T12:38:44;7.47;;;2.20;;
15317;SDS011;7759;52.528;13.346;2023-01-10T12:44:48;2.80;;;1.77;;
15317;SDS011;7759;52.528;13.346;2023-01-10T12:47:18;6.23;;;1.87;;
15317;SDS011;7759;52.528;13.346;2023-01-10T12:49:49;5.87;;;2.20;;
15317;SDS011;7759;52.528;13.346;2023-01-10T12:52:17;7.80;;;1.97;;
15317;SDS011;7759;52.528;13.346;2023-01-10T12:54:45;3.90;;;1.37;;
15317;SDS011;7759;52.528;13.346;2023-01-10T12:57:23;8.60;;;1.93;;
15317;SDS011;7759;52.528;13.346;2023-01-10T12:59:50;7.90;;;2.20;;
15317;SDS011;7759;52.528;13.346;2023-01-10T13:02:19;3.53;;;1.63;;
15317;SDS011;7759;52.528;13.346;2023-01-10T13:04:47;5.17;;;1.90;;
15317;SDS011;7759;52.528;13.346;2023-01-10T13:07:14;6.67;;;2.00;;
15317;SDS011;7759;52.528;13.346;2023-01-10T13:09:40;6.97;;;2.00;;
15317;SDS011;7759;52.528;13.346;2023-01-10T13:12:10;4.67;;;1.87;;
15317;SDS011;7759;52.528;13.346;2023-01-10T13:14:53;4.67;;;1.70;;
15317;SDS011;7759;52.528;13.346;2023-01-10T13:17:30;4.87;;;1.40;;
15317;SDS011;7759;52.528;13.346;2023-01-10T13:22:57;8.07;;;2.17;;
15317;SDS011;7759;52.528;13.346;2023-01-10T13:25:28;6.13;;;1.93;;
15317;SDS011;7759;52.528;13.346;2023-01-10T13:27:55;4.30;;;1.70;;
15317;SDS011;7759;52.528;13.346;2023-01-10T13:30:32;10.57;;;2.07;;
15317;SDS011;7759;52.528;13.346;2023-01-10T13:33:05;6.33;;;2.43;;
15317;SDS011;7759;52.528;13.346;2023-01-10T13:35:36;5.03;;;1.60;;
15317;SDS011;7759;52.528;13.346;2023-01-10T13:38:03;6.03;;;1.87;;
15317;SDS011;7759;52.528;13.346;2023-01-10T13:40:28;4.40;;;1.83;;
15317;SDS011;7759;52.528;13.346;2023-01-10T13:45:43;9.43;;;2.07;;
15317;SDS011;7759;52.528;13.346;2023-01-10T13:48:22;4.33;;;1.67;;
15317;SDS011;7759;52.528;13.346;2023-01-10T13:50:49;4.20;;;1.70;;
15317;SDS011;7759;52.528;13.346;2023-01-10T14:01:01;5.33;;;1.63;;
15317;SDS011;7759;52.528;13.346;2023-01-10T14:03:57;4.20;;;1.57;;
15317;SDS011;7759;52.528;13.346;2023-01-10T14:08:56;5.00;;;1.67;;
15317;SDS011;7759;52.528;13.346;2023-01-10T14:11:24;6.30;;;1.77;;
15317;SDS011;7759;52.528;13.346;2023-01-10T14:13:52;3.77;;;1.37;;
15317;SDS011;7759;52.528;13.346;2023-01-10T14:16:33;4.47;;;1.57;;
15317;SDS011;7759;52.528;13.346;2023-01-10T14:18:59;2.17;;;1.07;;
15317;SDS011;7759;52.528;13.346;2023-01-10T14:21:26;2.20;;;0.93;;
15317;SDS011;7759;52.528;13.346;2023-01-10T14:23:53;2.40;;;1.20;;
15317;SDS011;7759;52.528;13.346;2023-01-10T14:26:30;5.17;;;1.53;;
15317;SDS011;7759;52.528;13.346;2023-01-10T14:28:58;5.07;;;1.43;;
15317;SDS011;7759;52.528;13.346;2023-01-10T14:31:24;3.23;;;1.30;;
15317;SDS011;7759;52.528;13.346;2023-01-10T14:33:51;5.17;;;1.97;;
15317;SDS011;7759;52.528;13.346;2023-01-10T14:36:20;6.47;;;2.27;;
15317;SDS011;7759;52.528;13.346;2023-01-10T14:38:49;4.43;;;1.70;;
15317;SDS011;7759;52.528;13.346;2023-01-10T14:41:29;5.90;;;1.77;;
15317;SDS011;7759;52.528;13.346;2023-01-10T14:43:59;6.97;;;1.93;;
15317;SDS011;7759;52.528;13.346;2023-01-10T14:46:31;5.33;;;1.70;;
15317;SDS011;7759;52.528;13.346;2023-01-10T14:48:58;2.37;;;1.10;;
15317;SDS011;7759;52.528;13.346;2023-01-10T14:51:28;1.43;;;1.00;;
15317;SDS011;7759;52.528;13.346;2023-01-10T14:54:11;2.47;;;1.27;;
15317;SDS011;7759;52.528;13.346;2023-01-10T14:56:38;3.57;;;1.73;;
15317;SDS011;7759;52.528;13.346;2023-01-10T14:59:17;7.00;;;2.10;;
15317;SDS011;7759;52.528;13.346;2023-01-10T15:01:46;1.77;;;1.40;;
15317;SDS011;7759;52.528;13.346;2023-01-10T15:04:14;4.80;;;1.93;;
15317;SDS011;7759;52.528;13.346;2023-01-10T15:06:57;5.43;;;1.60;;
15317;SDS011;7759;52.528;13.346;2023-01-10T15:09:27;4.83;;;1.60;;
15317;SDS011;7759;52.528;13.346;2023-01-10T15:11:53;3.63;;;1.60;;
15317;SDS011;7759;52.528;13.346;2023-01-10T15:14:20;3.87;;;1.30;;
15317;SDS011;7759;52.528;13.346;2023-01-10T15:16:50;7.47;;;1.60;;
15317;SDS011;7759;52.528;13.346;2023-01-10T15:19:18;5.65;;;1.80;;
15317;SDS011;7759;52.528;13.346;2023-01-10T15:21:44;2.67;;;1.50;;
15317;SDS011;7759;52.528;13.346;2023-01-10T15:26:57;4.83;;;1.90;;
15317;SDS011;7759;52.528;13.346;2023-01-10T15:29:24;4.53;;;1.70;;
15317;SDS011;7759;52.528;13.346;2023-01-10T15:31:50;4.27;;;1.43;;
15317;SDS011;7759;52.528;13.346;2023-01-10T15:34:19;2.40;;;1.37;;
15317;SDS011;7759;52.528;13.346;2023-01-10T15:36:54;6.17;;;1.90;;
15317;SDS011;7759;52.528;13.346;2023-01-10T15:39:25;1.93;;;1.70;;
15317;SDS011;7759;52.528;13.346;2023-01-10T15:42:01;5.53;;;1.77;;
15317;SDS011;7759;52.528;13.346;2023-01-10T15:44:43;2.70;;;1.40;;
15317;SDS011;7759;52.528;13.346;2023-01-10T15:49:55;2.53;;;1.50;;
15317;SDS011;7759;52.528;13.346;2023-01-10T15:52:22;4.67;;;1.63;;
15317;SDS011;7759;52.528;13.346;2023-01-10T15:54:48;3.97;;;1.97;;
15317;SDS011;7759;52.528;13.346;2023-01-10T15:57:20;10.93;;;2.00;;
15317;SDS011;7759;52.528;13.346;2023-01-10T15:59:47;3.47;;;1.70;;
15317;SDS011;7759;52.528;13.346;2023-01-10T16:02:22;3.53;;;1.57;;
15317;SDS011;7759;52.528;13.346;2023-01-10T16:04:58;5.40;;;1.67;;
15317;SDS011;7759;52.528;13.346;2023-01-10T16:07:30;4.83;;;2.13;;
15317;SDS011;7759;52.528;13.346;2023-01-10T16:10:04;2.63;;;1.53;;
15317;SDS011;7759;52.528;13.346;2023-01-10T16:12:35;4.73;;;1.90;;
15317;SDS011;7759;52.528;13.346;2023-01-10T16:15:21;5.17;;;2.07;;
15317;SDS011;7759;52.528;13.346;2023-01-10T16:17:47;7.57;;;1.73;;
15317;SDS011;7759;52.528;13.346;2023-01-10T16:20:14;4.83;;;2.00;;
15317;SDS011;7759;52.528;13.346;2023-01-10T16:22:40;15.13;;;2.30;;
15317;SDS011;7759;52.528;13.346;2023-01-10T16:25:11;3.37;;;1.40;;
15317;SDS011;7759;52.528;13.346;2023-01-10T16:27:38;4.20;;;1.80;;
15317;SDS011;7759;52.528;13.346;2023-01-10T16:30:04;6.00;;;1.90;;
15317;SDS011;7759;52.528;13.346;2023-01-10T16:32:30;5.13;;;2.00;;
15317;SDS011;7759;52.528;13.346;2023-01-10T16:34:55;5.37;;;2.30;;
15317;SDS011;7759;52.528;13.346;2023-01-10T16:37:22;4.67;;;2.10;;
15317;SDS011;7759;52.528;13.346;2023-01-10T16:39:48;6.23;;;2.43;;
15317;SDS011;7759;52.528;13.346;2023-01-10T16:42:14;5.07;;;1.73;;
15317;SDS011;7759;52.528;13.346;2023-01-10T16:44:59;4.47;;;1.70;;
15317;SDS011;7759;52.528;13.346;2023-01-10T16:47:26;6.53;;;2.00;;
15317;SDS011;7759;52.528;13.346;2023-01-10T16:49:55;7.07;;;2.10;;
15317;SDS011;7759;52.528;13.346;2023-01-10T16:52:21;2.03;;;1.40;;
15317;SDS011;7759;52.528;13.346;2023-01-10T16:54:47;2.07;;;1.30;;
15317;SDS011;7759;52.528;13.346;2023-01-10T16:57:13;2.10;;;1.60;;
15317;SDS011;7759;52.528;13.346;2023-01-10T16:59:41;3.97;;;1.80;;
15317;SDS011;7759;52.528;13.346;2023-01-10T17:02:12;4.37;;;1.60;;
15317;SDS011;7759;52.528;13.346;2023-01-10T17:04:39;4.77;;;2.10;;
15317;SDS011;7759;52.528;13.346;2023-01-10T17:07:05;6.27;;;1.90;;
15317;SDS011;7759;52.528;13.346;2023-01-10T17:09:31;1.80;;;1.37;;
15317;SDS011;7759;52.528;13.346;2023-01-10T17:11:59;2.87;;;1.40;;
15317;SDS011;7759;52.528;13.346;2023-01-10T17:14:29;3.90;;;1.60;;
15317;SDS011;7759;52.528;13.346;2023-01-10T17:16:56;2.03;;;1.33;;